Time;durP1;ratioP1;P1;durP2;ratioP2;P2;SDS_P1;SDS_P2;PMS_P1;PMS_P2;Temp;Humidity;BMP_temperature;BMP_pressure;BME280_temperature;BME280_humidity;BME280_pressure;Samples;Min_cycle;Max_cycle;Signal;HPM_P1;HPM_P2
2022/05/18 00:00:00;;;;;;;2.50;2.30;;;;;;;;;;4955164;28;20440;-70
2022/05/18 00:02:26;;;;;;;4.10;2.17;;;;;;;;;;4955088;28;20034;-68
2022/05/18 00:04:51;;;;;;;2.67;2.13;;;;;;;;;;4955057;28;20027;-67
2022/05/18 00:07:16;;;;;;;2.47;2.28;;;;;;;;;;4954425;28;20444;-68
2022/05/18 00:09:42;;;;;;;2.80;2.53;;;;;;;;;;4954569;28;20041;-68
2022/05/18 00:12:07;;;;;;;2.65;2.45;;;;;;;;;;4951388;28;20034;-70
2022/05/18 00:14:33;;;;;;;4.40;2.75;;;;;;;;;;4950772;28;20450;-68
2022/05/18 00:17:03;;;;;;;2.90;2.70;;;;;;;;;;4954988;28;20019;-68
2022/05/18 00:19:28;;;;;;;3.15;2.78;;;;;;;;;;4956775;28;20478;-69
2022/05/18 00:21:54;;;;;;;2.40;2.28;;;;;;;;;;4954705;28;20068;-68
2022/05/18 00:24:19;;;;;;;2.80;2.50;;;;;;;;;;4954802;28;20019;-72
2022/05/18 00:26:44;;;;;;;2.50;2.30;;;;;;;;;;4956312;28;20115;-68
2022/05/18 00:29:10;;;;;;;3.25;2.38;;;;;;;;;;4955099;28;20039;-71
2022/05/18 00:31:35;;;;;;;3.00;2.72;;;;;;;;;;4946444;28;20454;-68
2022/05/18 00:34:00;;;;;;;5.25;2.63;;;;;;;;;;4955703;28;20114;-73
2022/05/18 00:36:26;;;;;;;2.25;2.05;;;;;;;;;;4953245;28;20045;-68
2022/05/18 00:38:51;;;;;;;2.00;1.90;;;;;;;;;;4954261;28;20042;-68
2022/05/18 00:41:19;;;;;;;2.15;1.88;;;;;;;;;;4954491;28;20427;-70
2022/05/18 00:43:45;;;;;;;3.28;2.58;;;;;;;;;;4954203;28;20342;-68
2022/05/18 00:46:12;;;;;;;7.90;2.55;;;;;;;;;;4958323;28;20491;-68
2022/05/18 00:48:38;;;;;;;3.17;2.88;;;;;;;;;;4958498;28;20037;-72
2022/05/18 00:51:05;;;;;;;2.85;2.42;;;;;;;;;;4956042;28;20031;-69
2022/05/18 00:53:32;;;;;;;2.42;2.20;;;;;;;;;;4955709;28;20296;-69
2022/05/18 00:56:00;;;;;;;2.40;2.20;;;;;;;;;;4949443;28;20354;-71
2022/05/18 00:58:37;;;;;;;4.18;3.20;;;;;;;;;;4956123;28;20038;-68
2022/05/18 01:01:03;;;;;;;2.65;2.45;;;;;;;;;;4957444;28;20051;-68
2022/05/18 01:03:30;;;;;;;2.50;2.30;;;;;;;;;;4956948;28;20050;-69
2022/05/18 01:05:57;;;;;;;2.72;2.50;;;;;;;;;;4956299;28;20030;-69
2022/05/18 01:08:44;;;;;;;3.47;2.50;;;;;;;;;;4956893;28;20031;-67
2022/05/18 01:11:10;;;;;;;2.25;2.05;;;;;;;;;;4957099;28;20077;-69
2022/05/18 01:13:35;;;;;;;2.85;2.65;;;;;;;;;;4957351;28;20031;-69
2022/05/18 01:16:01;;;;;;;2.83;2.60;;;;;;;;;;4957246;28;20029;-69
2022/05/18 01:18:26;;;;;;;2.80;2.60;;;;;;;;;;4953365;28;20095;-68
2022/05/18 01:20:52;;;;;;;2.65;2.42;;;;;;;;;;4953158;28;20026;-70
2022/05/18 01:23:17;;;;;;;2.60;2.40;;;;;;;;;;4957263;28;20100;-69
2022/05/18 01:26:06;;;;;;;2.40;2.20;;;;;;;;;;4957588;28;20073;-70
2022/05/18 01:28:39;;;;;;;5.30;2.57;;;;;;;;;;4968132;28;20373;-67
2022/05/18 01:31:04;;;;;;;2.83;2.53;;;;;;;;;;4948774;28;20039;-68
2022/05/18 01:33:31;;;;;;;3.33;3.00;;;;;;;;;;4956949;28;20065;-69
2022/05/18 01:35:56;;;;;;;3.25;2.80;;;;;;;;;;4957786;28;20084;-69
2022/05/18 01:38:21;;;;;;;3.50;3.20;;;;;;;;;;4956924;28;20034;-68
2022/05/18 01:41:08;;;;;;;3.80;3.15;;;;;;;;;;4957637;28;20031;-68
2022/05/18 01:44:02;;;;;;;4.65;3.03;;;;;;;;;;4958333;28;20041;-73
2022/05/18 01:46:30;;;;;;;3.80;3.50;;;;;;;;;;4961086;28;20039;-70
2022/05/18 01:48:56;;;;;;;4.13;3.65;;;;;;;;;;4956151;28;20035;-72
2022/05/18 01:51:29;;;;;;;4.03;3.60;;;;;;;;;;4957460;28;20437;-71
2022/05/18 01:53:54;;;;;;;5.18;3.95;;;;;;;;;;4956791;28;20030;-68
2022/05/18 01:56:19;;;;;;;5.53;3.75;;;;;;;;;;4956267;28;20022;-68
2022/05/18 01:58:46;;;;;;;4.53;4.15;;;;;;;;;;4957161;28;20044;-68
2022/05/18 02:01:11;;;;;;;4.85;4.45;;;;;;;;;;4957755;28;20091;-74
2022/05/18 02:03:36;;;;;;;4.68;4.28;;;;;;;;;;4950090;28;20131;-74
2022/05/18 02:06:02;;;;;;;4.50;4.10;;;;;;;;;;4956632;28;20089;-71
2022/05/18 02:08:27;;;;;;;5.65;4.90;;;;;;;;;;4962565;28;20034;-69
2022/05/18 02:10:54;;;;;;;5.70;5.07;;;;;;;;;;4957363;28;20481;-69
2022/05/18 02:13:20;;;;;;;5.85;5.28;;;;;;;;;;4954107;28;20102;-69
2022/05/18 02:15:46;;;;;;;5.47;5.03;;;;;;;;;;4946093;28;20113;-68
2022/05/18 02:18:11;;;;;;;4.60;4.20;;;;;;;;;;4946851;28;20094;-71
2022/05/18 02:20:37;;;;;;;5.95;4.82;;;;;;;;;;4945190;28;20411;-69
2022/05/18 02:23:02;;;;;;;5.63;5.13;;;;;;;;;;4956857;28;20034;-70
2022/05/18 02:25:28;;;;;;;5.85;5.35;;;;;;;;;;4957338;28;20188;-70
2022/05/18 02:27:54;;;;;;;10.27;6.63;;;;;;;;;;4957828;28;20027;-74
2022/05/18 02:30:19;;;;;;;7.25;6.22;;;;;;;;;;4957392;28;20039;-69
2022/05/18 02:32:45;;;;;;;8.40;5.88;;;;;;;;;;4955340;28;20492;-68
2022/05/18 02:35:10;;;;;;;7.35;6.68;;;;;;;;;;4956004;28;20043;-69
2022/05/18 02:37:35;;;;;;;10.35;7.10;;;;;;;;;;4956786;28;20034;-68
2022/05/18 02:40:01;;;;;;;7.72;6.93;;;;;;;;;;4956213;28;20034;-67
2022/05/18 02:42:26;;;;;;;7.30;6.13;;;;;;;;;;4953746;28;20019;-67
2022/05/18 02:44:52;;;;;;;8.73;6.07;;;;;;;;;;4950738;28;20034;-69
2022/05/18 02:47:18;;;;;;;6.00;5.50;;;;;;;;;;4955147;28;20035;-70
2022/05/18 02:49:44;;;;;;;7.32;6.63;;;;;;;;;;4957149;28;20026;-69
2022/05/18 02:52:09;;;;;;;7.43;6.70;;;;;;;;;;4953892;28;20315;-73
2022/05/18 02:57:19;;;;;;;6.82;6.22;;;;;;;;;;4955803;28;20037;-68
2022/05/18 02:59:45;;;;;;;6.90;6.30;;;;;;;;;;4954537;28;20035;-68
2022/05/18 03:02:10;;;;;;;7.82;6.55;;;;;;;;;;4956160;28;20050;-71
2022/05/18 03:04:35;;;;;;;6.95;6.25;;;;;;;;;;4947549;28;20062;-70
2022/05/18 03:07:01;;;;;;;6.50;5.90;;;;;;;;;;4942474;28;20030;-67
2022/05/18 03:09:26;;;;;;;8.50;7.20;;;;;;;;;;4947189;28;20034;-67
2022/05/18 03:11:51;;;;;;;8.68;7.85;;;;;;;;;;4954317;28;20327;-66
2022/05/18 03:14:17;;;;;;;8.40;7.60;;;;;;;;;;4955290;28;20465;-70
2022/05/18 03:16:43;;;;;;;9.38;8.48;;;;;;;;;;4955478;28;20460;-69
2022/05/18 03:19:09;;;;;;;9.10;8.20;;;;;;;;;;4953865;28;20031;-69
2022/05/18 03:24:18;;;;;;;8.48;7.45;;;;;;;;;;4956479;28;20134;-69
2022/05/18 03:26:44;;;;;;;9.45;8.57;;;;;;;;;;4952689;28;20426;-67
2022/05/18 03:29:09;;;;;;;9.55;8.55;;;;;;;;;;4948814;28;20089;-68
2022/05/18 03:31:34;;;;;;;10.77;9.30;;;;;;;;;;4952641;28;20034;-67
2022/05/18 03:34:00;;;;;;;9.60;8.57;;;;;;;;;;4948387;28;20118;-68
2022/05/18 03:36:26;;;;;;;10.00;9.00;;;;;;;;;;4955723;28;20460;-68
2022/05/18 03:38:52;;;;;;;11.82;10.15;;;;;;;;;;4950926;28;20109;-72
2022/05/18 03:41:18;;;;;;;10.80;9.80;;;;;;;;;;4951180;28;20122;-67
2022/05/18 03:43:44;;;;;;;9.88;8.93;;;;;;;;;;4954708;28;20041;-66
2022/05/18 03:46:10;;;;;;;10.20;9.23;;;;;;;;;;4954295;28;20031;-66
2022/05/18 03:48:35;;;;;;;10.40;8.88;;;;;;;;;;4954872;28;20039;-67
2022/05/18 03:51:02;;;;;;;9.90;8.98;;;;;;;;;;4951445;28;20038;-69
2022/05/18 03:53:28;;;;;;;9.45;8.55;;;;;;;;;;4945395;28;20088;-67
2022/05/18 03:55:53;;;;;;;9.13;8.25;;;;;;;;;;4945049;28;20039;-69
2022/05/18 03:58:19;;;;;;;9.57;8.68;;;;;;;;;;4944762;28;20030;-71
2022/05/18 04:00:45;;;;;;;9.75;8.32;;;;;;;;;;4944143;28;20440;-71
2022/05/18 04:03:11;;;;;;;8.70;7.90;;;;;;;;;;4953766;28;20051;-66
2022/05/18 04:05:38;;;;;;;9.23;8.00;;;;;;;;;;4953191;28;20018;-72
2022/05/18 04:08:04;;;;;;;9.23;8.32;;;;;;;;;;4953063;28;20343;-68
2022/05/18 04:10:30;;;;;;;12.32;10.25;;;;;;;;;;4948771;28;20097;-68
2022/05/18 04:12:55;;;;;;;16.58;10.63;;;;;;;;;;4944824;28;20027;-72
2022/05/18 04:15:20;;;;;;;15.75;10.25;;;;;;;;;;4942109;28;20039;-70
2022/05/18 04:17:46;;;;;;;9.23;8.32;;;;;;;;;;4942851;28;20027;-70
2022/05/18 04:20:13;;;;;;;10.68;9.52;;;;;;;;;;4944750;28;20402;-68
2022/05/18 04:22:38;;;;;;;9.93;9.02;;;;;;;;;;4957401;28;20038;-68
2022/05/18 04:25:04;;;;;;;9.65;8.75;;;;;;;;;;4945941;28;20035;-71
2022/05/18 04:27:29;;;;;;;10.10;9.10;;;;;;;;;;4961818;28;20038;-71
2022/05/18 04:29:55;;;;;;;8.65;7.85;;;;;;;;;;4950817;28;20030;-70
2022/05/18 04:32:21;;;;;;;9.70;8.80;;;;;;;;;;4946172;28;20113;-66
2022/05/18 04:34:48;;;;;;;9.10;8.20;;;;;;;;;;4945884;28;20035;-66
2022/05/18 04:37:14;;;;;;;9.15;8.25;;;;;;;;;;4946636;28;20035;-66
2022/05/18 04:39:39;;;;;;;8.20;7.43;;;;;;;;;;4949094;28;20467;-67
2022/05/18 04:42:04;;;;;;;9.52;8.63;;;;;;;;;;4946657;28;21103;-67
2022/05/18 04:44:30;;;;;;;9.55;8.65;;;;;;;;;;4945101;28;20046;-67
2022/05/18 04:46:56;;;;;;;9.35;8.45;;;;;;;;;;4948169;28;20031;-69
2022/05/18 04:49:21;;;;;;;9.23;8.43;;;;;;;;;;4950883;28;20492;-64
2022/05/18 04:51:47;;;;;;;9.07;8.18;;;;;;;;;;4955069;28;20035;-65
2022/05/18 04:54:12;;;;;;;11.15;10.07;;;;;;;;;;4958827;28;20070;-66
2022/05/18 04:56:37;;;;;;;11.70;10.10;;;;;;;;;;4949782;28;20033;-65
2022/05/18 04:59:03;;;;;;;10.43;9.43;;;;;;;;;;4956335;28;20061;-66
2022/05/18 05:01:30;;;;;;;10.13;9.13;;;;;;;;;;4953005;28;20080;-66
2022/05/18 05:03:55;;;;;;;11.45;9.35;;;;;;;;;;4950460;28;20022;-65
2022/05/18 05:06:20;;;;;;;10.32;9.30;;;;;;;;;;4953740;28;20034;-67
2022/05/18 05:08:46;;;;;;;10.18;8.82;;;;;;;;;;4945638;28;20030;-66
2022/05/18 05:11:11;;;;;;;10.70;9.68;;;;;;;;;;4945549;28;20264;-67
2022/05/18 05:13:36;;;;;;;9.35;8.45;;;;;;;;;;4944693;28;20514;-67
2022/05/18 05:16:06;;;;;;;10.48;9.48;;;;;;;;;;4945278;28;20412;-65
2022/05/18 05:18:31;;;;;;;;;;;;;;;;;;4945213;28;20574;-68
2022/05/18 05:20:57;;;;;;;9.13;8.23;;;;;;;;;;4951121;28;19979;-71
2022/05/18 05:23:24;;;;;;;9.98;9.07;;;;;;;;;;4944745;28;20126;-66
2022/05/18 05:25:49;;;;;;;11.23;10.07;;;;;;;;;;4946088;28;20446;-64
2022/05/18 05:28:15;;;;;;;11.57;10.38;;;;;;;;;;4943833;28;20030;-66
2022/05/18 05:30:40;;;;;;;11.75;10.55;;;;;;;;;;4945302;28;20046;-67
2022/05/18 05:33:06;;;;;;;11.15;10.05;;;;;;;;;;4944058;28;20034;-66
2022/05/18 05:35:31;;;;;;;10.45;9.32;;;;;;;;;;4944441;28;20035;-73
2022/05/18 05:37:56;;;;;;;11.52;10.48;;;;;;;;;;4945575;28;20035;-71
2022/05/18 05:40:22;;;;;;;11.45;10.02;;;;;;;;;;4944655;28;20031;-69
2022/05/18 05:42:47;;;;;;;11.15;10.07;;;;;;;;;;4945083;28;20026;-75
2022/05/18 05:45:13;;;;;;;11.93;10.63;;;;;;;;;;4947016;28;20461;-68
2022/05/18 05:47:38;;;;;;;11.52;10.43;;;;;;;;;;4952357;28;20038;-66
2022/05/18 05:50:04;;;;;;;10.57;9.57;;;;;;;;;;4955352;28;20049;-66
2022/05/18 05:52:29;;;;;;;10.13;9.13;;;;;;;;;;4956879;28;20456;-66
2022/05/18 05:54:54;;;;;;;10.82;9.82;;;;;;;;;;4957046;28;20102;-67
2022/05/18 05:57:20;;;;;;;9.65;8.75;;;;;;;;;;4956912;28;20027;-69
2022/05/18 05:59:45;;;;;;;9.48;8.55;;;;;;;;;;4963137;28;20045;-66
2022/05/18 06:02:15;;;;;;;9.27;8.48;;;;;;;;;;4955965;28;20424;-67
2022/05/18 06:04:40;;;;;;;8.75;7.95;;;;;;;;;;4959061;28;20122;-65
2022/05/18 06:07:06;;;;;;;8.55;7.75;;;;;;;;;;4955141;28;20145;-66
2022/05/18 06:09:31;;;;;;;7.75;7.05;;;;;;;;;;4956983;28;20058;-65
2022/05/18 06:11:57;;;;;;;7.30;6.70;;;;;;;;;;4955293;28;20030;-67
2022/05/18 06:14:23;;;;;;;7.82;6.95;;;;;;;;;;4958097;28;20074;-66
2022/05/18 06:16:48;;;;;;;7.25;6.65;;;;;;;;;;4956104;28;20669;-65
2022/05/18 06:19:14;;;;;;;6.75;6.15;;;;;;;;;;4957763;28;20035;-73
2022/05/18 06:21:40;;;;;;;6.03;5.53;;;;;;;;;;4956248;28;20701;-65
2022/05/18 06:24:05;;;;;;;6.15;5.55;;;;;;;;;;4958624;28;20094;-67
2022/05/18 06:26:30;;;;;;;6.53;5.40;;;;;;;;;;4957596;28;20722;-65
2022/05/18 06:28:56;;;;;;;6.35;5.75;;;;;;;;;;4957750;28;20038;-66
2022/05/18 06:31:21;;;;;;;5.68;5.18;;;;;;;;;;4958772;28;20136;-65
2022/05/18 06:33:47;;;;;;;8.40;5.65;;;;;;;;;;4958981;28;20438;-66
2022/05/18 06:36:12;;;;;;;6.55;5.47;;;;;;;;;;4957129;28;20121;-69
2022/05/18 06:38:37;;;;;;;6.07;5.47;;;;;;;;;;4957277;28;20019;-66
2022/05/18 06:41:24;;;;;;;6.35;5.75;;;;;;;;;;4957368;28;20027;-67
2022/05/18 06:43:53;;;;;;;5.65;5.15;;;;;;;;;;4957333;28;20163;-67
2022/05/18 06:46:19;;;;;;;6.57;5.32;;;;;;;;;;4955264;28;20027;-67
2022/05/18 06:48:44;;;;;;;4.97;4.57;;;;;;;;;;4956050;28;20031;-67
2022/05/18 06:51:10;;;;;;;5.15;4.70;;;;;;;;;;4955401;28;20107;-66
2022/05/18 06:53:35;;;;;;;5.88;5.05;;;;;;;;;;4956874;28;20030;-66
2022/05/18 06:56:01;;;;;;;5.30;4.80;;;;;;;;;;4956274;28;20042;-67
2022/05/18 06:58:26;;;;;;;5.40;4.90;;;;;;;;;;4956844;28;20023;-66
2022/05/18 07:00:51;;;;;;;7.43;4.53;;;;;;;;;;4956312;28;20065;-67
2022/05/18 07:03:17;;;;;;;4.80;4.13;;;;;;;;;;4957496;28;20373;-66
2022/05/18 07:05:43;;;;;;;4.07;3.78;;;;;;;;;;4956178;28;20026;-72
2022/05/18 07:08:09;;;;;;;4.95;4.18;;;;;;;;;;4957115;28;20091;-67
2022/05/18 07:10:34;;;;;;;4.47;3.75;;;;;;;;;;4955590;28;20073;-73
2022/05/18 07:12:59;;;;;;;5.85;3.90;;;;;;;;;;4957095;28;21244;-71
2022/05/18 07:15:25;;;;;;;5.78;3.85;;;;;;;;;;4962739;28;20022;-70
2022/05/18 07:17:50;;;;;;;6.55;4.10;;;;;;;;;;4955093;28;20026;-67
2022/05/18 07:20:16;;;;;;;4.97;3.50;;;;;;;;;;4956777;28;20038;-72
2022/05/18 07:22:41;;;;;;;3.45;3.15;;;;;;;;;;4956797;28;20019;-66
2022/05/18 07:25:07;;;;;;;3.35;3.03;;;;;;;;;;4956468;28;20033;-68
2022/05/18 07:27:32;;;;;;;3.63;3.30;;;;;;;;;;4957023;28;20033;-72
2022/05/18 07:29:57;;;;;;;5.75;3.30;;;;;;;;;;4955924;28;20072;-68
2022/05/18 07:32:23;;;;;;;4.95;3.38;;;;;;;;;;4954862;28;20039;-68
2022/05/18 07:34:48;;;;;;;2.60;2.40;;;;;;;;;;4956922;28;20062;-68
2022/05/18 07:37:15;;;;;;;3.15;2.35;;;;;;;;;;4956064;28;20087;-67
2022/05/18 07:39:40;;;;;;;2.15;1.95;;;;;;;;;;4957083;28;20042;-68
2022/05/18 07:42:06;;;;;;;3.72;2.03;;;;;;;;;;4954471;28;20030;-65
2022/05/18 07:44:32;;;;;;;2.38;2.17;;;;;;;;;;4956048;28;20038;-67
2022/05/18 07:46:57;;;;;;;2.05;1.95;;;;;;;;;;4954659;28;20350;-66
2022/05/18 07:49:23;;;;;;;2.63;2.15;;;;;;;;;;4955432;28;20089;-66
2022/05/18 07:51:48;;;;;;;2.58;2.38;;;;;;;;;;4955538;28;20084;-66
2022/05/18 07:54:14;;;;;;;2.15;1.95;;;;;;;;;;4955834;28;20030;-68
2022/05/18 07:56:39;;;;;;;1.63;1.52;;;;;;;;;;4957947;28;20054;-67
2022/05/18 07:59:05;;;;;;;1.77;1.67;;;;;;;;;;4958423;28;20031;-74
2022/05/18 08:01:31;;;;;;;2.40;1.77;;;;;;;;;;4959813;28;20614;-69
2022/05/18 08:03:56;;;;;;;2.95;1.80;;;;;;;;;;4959212;28;20049;-70
2022/05/18 08:06:22;;;;;;;2.13;1.73;;;;;;;;;;4957743;28;20023;-68
2022/05/18 08:08:47;;;;;;;5.53;3.95;;;;;;;;;;4959565;28;20373;-72
2022/05/18 08:16:40;;;;;;;1.77;1.52;;;;;;;;;;4960143;28;20503;-67
2022/05/18 08:19:10;;;;;;;3.13;1.50;;;;;;;;;;4959758;28;20023;-76
2022/05/18 08:21:35;;;;;;;;;;;;;;;;;;4959281;28;20741;-68
2022/05/18 08:24:00;;;;;;;1.53;1.10;;;;;;;;;;4956402;28;19965;-75
2022/05/18 08:26:25;;;;;;;1.58;1.10;;;;;;;;;;4960636;28;20130;-69
2022/05/18 08:28:52;;;;;;;1.63;1.30;;;;;;;;;;4959957;28;20369;-70
2022/05/18 08:31:18;;;;;;;1.13;1.02;;;;;;;;;;4960475;28;20048;-72
2022/05/18 08:33:43;;;;;;;2.08;1.42;;;;;;;;;;4958450;28;20031;-75
2022/05/18 08:36:10;;;;;;;1.20;1.10;;;;;;;;;;4960150;28;20061;-69
2022/05/18 08:38:35;;;;;;;2.50;1.00;;;;;;;;;;4958602;28;22931;-69
2022/05/18 08:41:07;;;;;;;1.05;1.00;;;;;;;;;;4959342;28;20038;-68
2022/05/18 08:43:34;;;;;;;1.20;0.90;;;;;;;;;;4958803;28;20341;-69
2022/05/18 08:46:02;;;;;;;1.02;1.00;;;;;;;;;;4960086;28;20041;-69
2022/05/18 08:48:34;;;;;;;0.85;0.85;;;;;;;;;;4959127;28;20022;-67
2022/05/18 08:51:05;;;;;;;1.05;1.00;;;;;;;;;;4958566;28;20081;-68
2022/05/18 08:53:46;;;;;;;1.20;1.10;;;;;;;;;;4959123;28;20095;-68
2022/05/18 08:56:19;;;;;;;0.88;0.85;;;;;;;;;;4958129;28;20050;-68
2022/05/18 08:58:45;;;;;;;1.83;1.00;;;;;;;;;;4959096;28;20120;-68
2022/05/18 09:01:28;;;;;;;1.75;0.90;;;;;;;;;;4957559;28;20051;-68
2022/05/18 09:03:56;;;;;;;1.55;0.98;;;;;;;;;;4958195;28;20469;-69
2022/05/18 09:06:36;;;;;;;0.80;0.80;;;;;;;;;;4959105;28;20019;-74
2022/05/18 09:11:46;;;;;;;1.33;1.17;;;;;;;;;;4957009;28;20108;-76
2022/05/18 09:14:13;;;;;;;1.00;0.90;;;;;;;;;;4959043;28;20279;-70
2022/05/18 09:16:42;;;;;;;2.15;1.05;;;;;;;;;;4959422;28;20035;-68
2022/05/18 09:19:11;;;;;;;1.02;0.93;;;;;;;;;;4957424;28;20026;-70
2022/05/18 09:21:55;;;;;;;1.95;1.17;;;;;;;;;;4958211;28;20031;-67
2022/05/18 09:24:27;;;;;;;0.80;0.80;;;;;;;;;;4960266;28;20513;-68
2022/05/18 09:26:55;;;;;;;1.20;0.82;;;;;;;;;;4957777;28;20025;-73
2022/05/18 09:29:20;;;;;;;0.65;0.65;;;;;;;;;;4958736;28;20043;-68
2022/05/18 09:32:04;;;;;;;5.55;0.95;;;;;;;;;;4958667;28;20041;-68
2022/05/18 09:34:42;;;;;;;1.95;0.90;;;;;;;;;;4959927;28;20027;-68
2022/05/18 09:37:25;;;;;;;0.60;0.60;;;;;;;;;;4958115;28;20389;-66
2022/05/18 09:40:12;;;;;;;0.90;0.63;;;;;;;;;;4954254;28;20350;-68
2022/05/18 09:42:40;;;;;;;1.30;1.20;;;;;;;;;;4959121;28;20156;-67
2022/05/18 09:45:05;;;;;;;1.15;0.90;;;;;;;;;;4958522;28;20041;-75
2022/05/18 09:47:33;;;;;;;1.70;1.00;;;;;;;;;;4958771;28;20027;-71
2022/05/18 09:50:01;;;;;;;4.47;1.00;;;;;;;;;;4956985;28;20066;-69
2022/05/18 09:52:28;;;;;;;1.90;0.93;;;;;;;;;;4957333;28;20039;-70
2022/05/18 09:54:54;;;;;;;3.80;1.27;;;;;;;;;;4958127;28;20470;-71
2022/05/18 09:57:33;;;;;;;0.82;0.82;;;;;;;;;;4959851;28;20050;-68
2022/05/18 10:00:00;;;;;;;0.93;0.82;;;;;;;;;;4960472;28;20120;-68
2022/05/18 10:07:57;;;;;;;1.45;0.80;;;;;;;;;;4957390;28;20374;-72
2022/05/18 10:10:25;;;;;;;2.10;0.80;;;;;;;;;;4958699;28;20084;-73
2022/05/18 10:12:54;;;;;;;1.98;0.90;;;;;;;;;;4959722;28;20026;-68
2022/05/18 10:15:39;;;;;;;0.80;0.80;;;;;;;;;;4956348;28;20528;-74
2022/05/18 10:18:41;;;;;;;0.70;0.70;;;;;;;;;;4957375;28;20104;-68
2022/05/18 10:21:09;;;;;;;0.70;0.70;;;;;;;;;;4974888;28;20038;-69
2022/05/18 10:23:42;;;;;;;0.70;0.70;;;;;;;;;;4961883;28;20369;-73
2022/05/18 10:26:18;;;;;;;1.02;0.70;;;;;;;;;;4956278;28;20023;-69
2022/05/18 10:28:52;;;;;;;0.95;0.70;;;;;;;;;;4956981;28;20030;-68
2022/05/18 10:31:35;;;;;;;1.67;1.00;;;;;;;;;;4956407;28;20504;-73
2022/05/18 10:34:29;;;;;;;0.90;0.63;;;;;;;;;;4957775;28;20105;-70
2022/05/18 10:36:58;;;;;;;0.98;0.90;;;;;;;;;;4962345;28;21505;-71
2022/05/18 10:39:36;;;;;;;2.85;1.15;;;;;;;;;;4959185;28;20066;-70
2022/05/18 10:42:07;;;;;;;4.43;0.93;;;;;;;;;;4956993;28;20053;-69
2022/05/18 10:44:34;;;;;;;3.25;0.90;;;;;;;;;;4958009;28;20031;-70
2022/05/18 10:47:11;;;;;;;1.20;0.80;;;;;;;;;;4945426;28;20027;-67
2022/05/18 10:49:36;;;;;;;0.70;0.70;;;;;;;;;;4950948;28;20027;-73
2022/05/18 10:52:09;;;;;;;3.40;0.77;;;;;;;;;;4954640;28;20030;-70
2022/05/18 10:54:35;;;;;;;0.88;0.70;;;;;;;;;;4970558;28;20719;-69
2022/05/18 10:57:09;;;;;;;0.95;0.60;;;;;;;;;;4957884;28;20030;-69
2022/05/18 10:59:48;;;;;;;1.65;0.80;;;;;;;;;;4957754;28;20034;-69
2022/05/18 11:02:24;;;;;;;2.60;1.02;;;;;;;;;;4959225;28;20103;-75
2022/05/18 11:04:51;;;;;;;0.65;0.65;;;;;;;;;;4957386;28;20084;-71
2022/05/18 11:07:18;;;;;;;1.80;0.90;;;;;;;;;;4957679;28;20065;-70
2022/05/18 11:09:43;;;;;;;1.15;0.68;;;;;;;;;;4956895;28;20035;-68
2022/05/18 11:12:32;;;;;;;0.60;0.60;;;;;;;;;;4957796;28;20046;-68
2022/05/18 11:14:59;;;;;;;1.40;0.88;;;;;;;;;;4958693;28;20026;-69
2022/05/18 11:17:24;;;;;;;1.63;0.80;;;;;;;;;;4955489;28;20031;-75
2022/05/18 11:20:00;;;;;;;1.90;0.80;;;;;;;;;;4957900;28;20034;-74
2022/05/18 11:22:34;;;;;;;1.50;0.60;;;;;;;;;;4956470;28;20358;-68
2022/05/18 11:25:09;;;;;;;1.15;0.80;;;;;;;;;;4956580;28;20035;-72
2022/05/18 11:27:37;;;;;;;0.60;0.60;;;;;;;;;;4957529;28;20133;-68
2022/05/18 11:30:06;;;;;;;2.15;0.85;;;;;;;;;;4956133;28;20061;-74
2022/05/18 11:32:43;;;;;;;1.07;0.83;;;;;;;;;;4956982;28;20457;-68
2022/05/18 11:35:14;;;;;;;1.08;0.80;;;;;;;;;;4957474;28;20351;-72
2022/05/18 11:37:42;;;;;;;1.27;0.90;;;;;;;;;;4956532;28;20034;-70
2022/05/18 11:40:07;;;;;;;1.73;0.90;;;;;;;;;;4955766;28;20124;-69
2022/05/18 11:42:36;;;;;;;9.90;1.20;;;;;;;;;;4957887;28;20057;-69
2022/05/18 11:45:20;;;;;;;3.07;0.90;;;;;;;;;;4957717;28;20031;-73
2022/05/18 11:47:45;;;;;;;1.45;0.80;;;;;;;;;;4957266;28;20132;-71
2022/05/18 11:50:27;;;;;;;3.35;0.80;;;;;;;;;;4956551;28;20141;-69
2022/05/18 11:52:58;;;;;;;1.23;0.82;;;;;;;;;;4955299;28;20023;-76
2022/05/18 11:55:31;;;;;;;3.33;0.80;;;;;;;;;;4957002;28;20039;-75
2022/05/18 11:58:17;;;;;;;0.70;0.60;;;;;;;;;;4954868;28;20133;-69
2022/05/18 12:00:56;;;;;;;1.42;0.70;;;;;;;;;;4956531;28;20373;-70
2022/05/18 12:03:21;;;;;;;;;;;;;;;;;;4956390;28;20036;-71
2022/05/18 12:05:55;;;;;;;1.23;0.60;;;;;;;;;;4958363;28;19970;-69
2022/05/18 12:08:39;;;;;;;0.90;0.75;;;;;;;;;;4957058;28;20026;-70
2022/05/18 12:11:23;;;;;;;0.50;0.50;;;;;;;;;;4957595;28;20085;-70
2022/05/18 12:14:09;;;;;;;2.70;1.70;;;;;;;;;;4960815;28;20030;-71
2022/05/18 12:16:53;;;;;;;1.17;0.73;;;;;;;;;;4956510;28;20085;-68
2022/05/18 12:19:33;;;;;;;1.55;0.70;;;;;;;;;;4956508;28;20076;-70
2022/05/18 12:22:00;;;;;;;1.88;0.77;;;;;;;;;;4956595;28;20041;-75
2022/05/18 12:24:26;;;;;;;0.60;0.50;;;;;;;;;;4957161;28;20035;-70
2022/05/18 12:26:53;;;;;;;1.80;0.60;;;;;;;;;;4955426;28;20042;-68
2022/05/18 12:29:21;;;;;;;1.25;0.70;;;;;;;;;;4957735;28;20162;-73
2022/05/18 12:31:46;;;;;;;2.30;0.70;;;;;;;;;;4957895;28;20788;-69
2022/05/18 12:34:12;;;;;;;1.58;0.88;;;;;;;;;;4957530;28;20027;-68
2022/05/18 12:36:40;;;;;;;1.57;0.80;;;;;;;;;;4956237;28;20031;-68
2022/05/18 12:39:09;;;;;;;0.60;0.60;;;;;;;;;;4955784;28;20265;-71
2022/05/18 12:41:37;;;;;;;1.25;0.70;;;;;;;;;;4957524;28;20027;-69
2022/05/18 12:44:08;;;;;;;2.33;0.70;;;;;;;;;;4958174;28;20079;-69
2022/05/18 12:46:38;;;;;;;0.93;0.55;;;;;;;;;;4959560;28;20453;-71
2022/05/18 12:49:10;;;;;;;0.57;0.55;;;;;;;;;;4959176;28;20489;-74
2022/05/18 12:51:38;;;;;;;0.95;0.75;;;;;;;;;;4956638;28;20034;-71
2022/05/18 12:54:09;;;;;;;2.80;0.90;;;;;;;;;;4959056;28;20019;-69
2022/05/18 12:56:34;;;;;;;1.50;0.80;;;;;;;;;;4959729;28;20026;-69
2022/05/18 12:59:00;;;;;;;0.87;0.57;;;;;;;;;;4959366;28;20027;-69
2022/05/18 13:01:28;;;;;;;0.73;0.73;;;;;;;;;;4957622;28;20281;-76
2022/05/18 13:04:01;;;;;;;1.20;0.63;;;;;;;;;;4959372;28;20031;-69
2022/05/18 13:06:35;;;;;;;1.58;0.70;;;;;;;;;;4956928;28;20027;-69
2022/05/18 13:09:25;;;;;;;3.42;0.80;;;;;;;;;;4958890;28;20573;-69
2022/05/18 13:11:59;;;;;;;0.93;0.55;;;;;;;;;;4958520;28;20043;-72
2022/05/18 13:14:24;;;;;;;1.33;0.60;;;;;;;;;;4958797;28;22789;-74
2022/05/18 13:16:50;;;;;;;2.63;0.50;;;;;;;;;;4958467;28;20045;-73
2022/05/18 13:19:18;;;;;;;1.97;0.73;;;;;;;;;;4958848;28;20043;-72
2022/05/18 13:21:52;;;;;;;2.85;0.50;;;;;;;;;;4958939;28;20249;-70
2022/05/18 13:24:36;;;;;;;1.23;0.65;;;;;;;;;;4958457;28;20025;-68
2022/05/18 13:27:13;;;;;;;2.35;0.75;;;;;;;;;;4945996;28;20031;-69
2022/05/18 13:29:39;;;;;;;0.60;0.60;;;;;;;;;;4946469;28;20111;-74
2022/05/18 13:32:07;;;;;;;1.35;0.60;;;;;;;;;;4955623;28;20664;-75
2022/05/18 13:34:42;;;;;;;0.47;0.47;;;;;;;;;;4951509;28;20019;-70
2022/05/18 13:37:07;;;;;;;1.65;0.50;;;;;;;;;;4959881;28;20030;-71
2022/05/18 13:39:35;;;;;;;0.98;0.57;;;;;;;;;;4960274;28;20023;-69
2022/05/18 13:42:21;;;;;;;0.60;0.50;;;;;;;;;;4959646;28;20039;-76
2022/05/18 13:44:50;;;;;;;2.75;0.77;;;;;;;;;;4946529;28;24011;-75
2022/05/18 13:47:21;;;;;;;0.65;0.55;;;;;;;;;;4959471;28;20088;-69
2022/05/18 13:49:46;;;;;;;2.08;0.70;;;;;;;;;;4960084;28;20092;-72
2022/05/18 13:52:19;;;;;;;4.40;0.85;;;;;;;;;;4957525;28;20468;-74
2022/05/18 13:54:46;;;;;;;1.48;0.80;;;;;;;;;;4959033;28;20030;-69
2022/05/18 13:57:14;;;;;;;1.48;0.75;;;;;;;;;;4957392;28;20039;-69
2022/05/18 13:59:45;;;;;;;2.85;0.70;;;;;;;;;;4946947;28;20027;-77
2022/05/18 14:02:15;;;;;;;0.65;0.47;;;;;;;;;;4947287;28;20142;-70
2022/05/18 14:04:42;;;;;;;1.33;0.60;;;;;;;;;;4954184;28;23460;-72
2022/05/18 14:07:07;;;;;;;1.85;0.50;;;;;;;;;;4949267;28;20449;-71
2022/05/18 14:09:41;;;;;;;1.45;0.70;;;;;;;;;;4945471;28;20049;-71
2022/05/18 14:12:13;;;;;;;5.75;1.02;;;;;;;;;;4944910;28;20039;-72
2022/05/18 14:14:38;;;;;;;2.25;0.70;;;;;;;;;;4942803;28;20018;-71
2022/05/18 14:17:10;;;;;;;1.13;0.60;;;;;;;;;;4946151;28;20467;-73
2022/05/18 14:19:36;;;;;;;0.77;0.52;;;;;;;;;;4945097;28;20023;-69
2022/05/18 14:22:02;;;;;;;2.95;0.50;;;;;;;;;;4945266;28;20023;-68
2022/05/18 14:24:32;;;;;;;1.42;0.70;;;;;;;;;;4945009;28;20023;-75
2022/05/18 14:27:10;;;;;;;1.63;0.47;;;;;;;;;;4944657;28;20039;-68
2022/05/18 14:29:37;;;;;;;0.47;0.43;;;;;;;;;;4943244;28;20031;-68
2022/05/18 14:32:05;;;;;;;1.10;0.60;;;;;;;;;;4947165;28;20042;-70
2022/05/18 14:34:35;;;;;;;1.85;0.50;;;;;;;;;;4950101;28;20048;-71
2022/05/18 14:37:03;;;;;;;2.33;0.70;;;;;;;;;;4955778;28;20093;-72
2022/05/18 14:39:35;;;;;;;7.07;0.63;;;;;;;;;;4954029;28;20049;-76
2022/05/18 14:42:01;;;;;;;2.10;1.08;;;;;;;;;;4943441;28;20033;-75
2022/05/18 14:44:40;;;;;;;1.48;0.60;;;;;;;;;;4945738;28;20026;-74
2022/05/18 14:47:14;;;;;;;1.70;0.82;;;;;;;;;;4947108;28;20130;-75
2022/05/18 14:49:40;;;;;;;1.33;0.50;;;;;;;;;;4946386;28;20031;-77
2022/05/18 14:52:08;;;;;;;1.13;0.73;;;;;;;;;;4946367;28;20041;-78
2022/05/18 14:54:38;;;;;;;0.68;0.60;;;;;;;;;;4943051;28;20080;-76
2022/05/18 14:57:23;;;;;;;0.93;0.50;;;;;;;;;;4952488;28;20039;-76
2022/05/18 15:00:05;;;;;;;2.47;0.98;;;;;;;;;;4954463;28;20062;-77
2022/05/18 15:02:31;;;;;;;1.35;0.95;;;;;;;;;;4951963;28;20058;-77
2022/05/18 15:04:57;;;;;;;2.72;0.70;;;;;;;;;;4945445;28;20031;-76
2022/05/18 15:07:25;;;;;;;1.42;0.90;;;;;;;;;;4945882;28;23922;-78
2022/05/18 15:09:52;;;;;;;1.80;0.87;;;;;;;;;;4943920;28;20038;-76